KCPR/CPR METAR and TAF weather

Enter ICAO airport designator
Station Type Date Time Source
KCPR METAR 2023/03/27 08:53 UTC NOAA

KCPR 270853Z AUTO 22012KT 10SM CLR M08/M13 A2999 RMK AO2 SLP191 T10781133 51004 $


Station Type Date Time Source
KCPR Decoded METAR 2023/03/27 08:53 UTC NOAA

NATRONA COUNTY INTERNATIONAL AIRPORT , WY, United States (KCPR) 42-54N 106-28W 1621M
Mar 27, 2023 - 04:53 AM EDT / 2023.03.27 0853 UTC
Wind: from the SW (220 degrees) at 14 MPH (12 KT):0
Visibility: 10 mile(s):0
Sky conditions: clear
Temperature: 18.0 F (-7.8 C)
Windchill: 5 F (-15 C):1
Dew Point: 8.1 F (-13.3 C)
Relative Humidity: 64%
Pressure (altimeter): 29.99 in. Hg (1015 hPa)
Pressure tendency: 0.01 inches (0.4 hPa) higher than three hours ago
ob: KCPR 270853Z AUTO 22012KT 10SM CLR M08/M13 A2999 RMK AO2 SLP191 T10781133 51004
cycle: 9

Station Type Date Time Source
KCPR TAF 2023/03/27 06:24 UTC NOAA

TAF KCPR 270522Z 2706/2806 23011KT P6SM SCT150
FM271000 25007KT P6SM SCT040 BKN060
FM271300 32008KT 6SM -SN SCT023 BKN035
TEMPO 2713/2717 3SM -SN SCT011 BKN017
FM272000 26007KT P6SM SCT025 BKN045
FM280300 23010KT P6SM FEW080

Example: see airport list